createdAt,value
2018-07-20T00:00:03.323Z,21.50
2018-07-20T00:02:31.673Z,21.40
2018-07-20T00:05:00.061Z,21.40
2018-07-20T00:07:28.393Z,21.40
2018-07-20T00:12:24.996Z,21.20
2018-07-20T00:14:53.347Z,21.20
2018-07-20T00:17:21.674Z,21.20
2018-07-20T00:19:50.016Z,21.20
2018-07-20T00:22:18.396Z,21.20
2018-07-20T00:24:46.867Z,21.10
2018-07-20T00:27:15.253Z,21.00
2018-07-20T00:29:43.630Z,21.10
2018-07-20T00:32:12.210Z,21.00
2018-07-20T00:34:40.570Z,21.00
2018-07-20T00:37:08.889Z,20.90
2018-07-20T00:42:05.520Z,21.00
2018-07-20T00:44:33.861Z,21.00
2018-07-20T00:47:02.248Z,21.00
2018-07-20T00:49:30.581Z,21.00
2018-07-20T00:51:58.949Z,20.90
2018-07-20T00:54:27.324Z,20.90
2018-07-20T00:56:55.695Z,20.90
2018-07-20T00:59:24.073Z,21.00
2018-07-20T01:01:52.407Z,20.90
2018-07-20T01:04:20.656Z,20.80
2018-07-20T01:06:48.997Z,20.70
2018-07-20T01:09:17.349Z,20.80
2018-07-20T01:11:45.701Z,20.70
2018-07-20T01:14:14.124Z,20.60
2018-07-20T01:16:42.525Z,20.60
2018-07-20T01:19:10.903Z,20.60
2018-07-20T01:21:39.266Z,20.60
2018-07-20T01:24:07.689Z,20.50
2018-07-20T01:26:36.044Z,20.50
2018-07-20T01:29:04.519Z,20.60
2018-07-20T01:31:32.806Z,20.50
2018-07-20T01:34:01.169Z,20.60
2018-07-20T01:36:29.476Z,20.60
2018-07-20T01:38:57.750Z,20.50
2018-07-20T01:41:26.161Z,20.40
2018-07-20T01:43:54.495Z,20.30
2018-07-20T01:46:22.783Z,20.20
2018-07-20T01:48:51.104Z,20.20
2018-07-20T01:51:19.454Z,20.20
2018-07-20T01:53:47.816Z,20.20
2018-07-20T01:56:16.146Z,20.10
2018-07-20T01:58:44.517Z,20.10
2018-07-20T02:01:12.903Z,20.10
2018-07-20T02:03:41.291Z,20.00
2018-07-20T02:08:37.833Z,19.90
2018-07-20T02:11:06.239Z,19.90
2018-07-20T02:13:34.628Z,20.00
2018-07-20T02:16:02.981Z,20.10
2018-07-20T02:18:31.333Z,20.10
2018-07-20T02:20:59.672Z,20.00
2018-07-20T02:23:27.999Z,20.00
2018-07-20T02:25:56.305Z,20.00
2018-07-20T02:28:24.724Z,19.90
2018-07-20T02:30:53.116Z,19.90
2018-07-20T02:33:21.467Z,19.70
2018-07-20T02:35:49.778Z,19.70
2018-07-20T02:38:18.144Z,19.80
2018-07-20T02:40:46.497Z,19.90
2018-07-20T02:43:14.848Z,19.90
2018-07-20T02:45:43.241Z,19.90
2018-07-20T02:48:11.592Z,19.90
2018-07-20T02:50:39.921Z,19.90
2018-07-20T02:53:08.293Z,19.90
2018-07-20T02:55:36.632Z,19.80
2018-07-20T02:58:05.169Z,19.70
2018-07-20T03:00:33.518Z,19.60
2018-07-20T03:03:01.937Z,19.50
2018-07-20T03:05:30.269Z,19.50
2018-07-20T03:07:58.629Z,19.50
2018-07-20T03:10:26.966Z,19.40
2018-07-20T03:12:55.341Z,19.40
2018-07-20T03:15:23.749Z,19.40
2018-07-20T03:17:52.112Z,19.30
2018-07-20T03:20:20.544Z,19.40
2018-07-20T03:22:48.900Z,19.50
2018-07-20T03:25:17.210Z,19.50
2018-07-20T03:27:45.597Z,19.50
2018-07-20T03:30:13.964Z,19.50
2018-07-20T03:32:42.488Z,19.50
2018-07-20T03:35:10.794Z,19.50
2018-07-20T03:37:39.155Z,19.50
2018-07-20T03:40:07.490Z,19.40
2018-07-20T03:42:35.838Z,19.40
2018-07-20T03:45:05.277Z,19.40
2018-07-20T03:47:34.237Z,19.40
2018-07-20T03:50:02.625Z,19.30
2018-07-20T03:52:30.955Z,19.20
2018-07-20T03:54:59.290Z,19.30
2018-07-20T03:57:27.637Z,19.20
2018-07-20T03:59:55.953Z,19.30
2018-07-20T04:02:24.396Z,19.30
2018-07-20T04:04:52.805Z,19.40
2018-07-20T04:07:21.304Z,19.40
2018-07-20T04:09:49.728Z,19.40
2018-07-20T04:12:18.064Z,19.50
2018-07-20T04:14:46.417Z,19.40
2018-07-20T04:17:14.796Z,19.40
2018-07-20T04:19:43.190Z,19.40
2018-07-20T04:22:11.505Z,19.40
2018-07-20T04:24:39.873Z,19.40
2018-07-20T04:27:08.232Z,19.40
2018-07-20T04:29:36.554Z,19.40
2018-07-20T04:32:05.221Z,19.30
2018-07-20T04:34:33.726Z,19.30
2018-07-20T04:37:02.066Z,19.40
2018-07-20T04:39:30.376Z,19.40
2018-07-20T04:41:58.709Z,19.50
2018-07-20T04:44:27.025Z,19.40
2018-07-20T04:46:55.492Z,19.50
2018-07-20T04:49:23.832Z,19.60
2018-07-20T04:51:52.162Z,19.70
2018-07-20T04:54:20.462Z,19.80
2018-07-20T04:56:48.942Z,19.90
2018-07-20T04:59:17.291Z,19.90
2018-07-20T05:04:13.812Z,20.00
2018-07-20T05:06:42.196Z,20.00
2018-07-20T05:09:10.674Z,20.10
2018-07-20T05:11:39.162Z,20.00
2018-07-20T05:14:08.008Z,20.00
2018-07-20T05:16:36.381Z,20.00
2018-07-20T05:19:05.024Z,20.10
2018-07-20T05:21:33.382Z,20.20
2018-07-20T05:24:02.735Z,20.30
2018-07-20T05:26:31.137Z,20.40
2018-07-20T05:28:59.945Z,20.50
2018-07-20T05:31:29.278Z,20.60
2018-07-20T05:36:26.370Z,20.70
2018-07-20T05:38:54.687Z,20.80
2018-07-20T05:41:23.101Z,20.80
2018-07-20T05:43:51.547Z,20.80
2018-07-20T05:46:19.957Z,20.60
2018-07-20T05:48:48.463Z,20.70
2018-07-20T05:51:16.887Z,20.70
2018-07-20T05:53:46.049Z,20.70
2018-07-20T05:56:14.511Z,20.70
2018-07-20T05:58:42.948Z,20.70
2018-07-20T06:01:11.429Z,20.70
2018-07-20T06:03:39.807Z,20.90
2018-07-20T06:06:08.225Z,21.00
2018-07-20T06:08:36.556Z,21.20
2018-07-20T06:11:05.310Z,21.20
2018-07-20T06:13:33.726Z,21.30
2018-07-20T06:16:02.080Z,21.40
2018-07-20T06:18:31.291Z,21.50
2018-07-20T06:20:59.671Z,21.40
2018-07-20T06:23:28.102Z,21.50
2018-07-20T06:25:56.439Z,21.70
2018-07-20T06:28:24.782Z,21.80
2018-07-20T06:30:53.104Z,21.90
2018-07-20T06:33:21.475Z,22.00
2018-07-20T06:35:49.789Z,22.10
2018-07-20T06:38:18.160Z,22.20
2018-07-20T06:40:47.267Z,22.30
2018-07-20T06:43:15.595Z,22.40
2018-07-20T06:45:43.983Z,22.40
2018-07-20T06:48:12.409Z,22.50
2018-07-20T06:50:40.816Z,22.50
2018-07-20T06:53:09.158Z,22.60
2018-07-20T06:55:37.601Z,22.60
2018-07-20T06:58:06.073Z,22.70
2018-07-20T07:03:02.682Z,22.70
2018-07-20T07:05:31.068Z,22.60
2018-07-20T07:07:59.397Z,22.60
2018-07-20T07:10:27.753Z,22.60
2018-07-20T07:12:56.222Z,22.60
2018-07-20T07:17:52.925Z,22.60
2018-07-20T07:20:21.362Z,22.60
2018-07-20T07:22:49.722Z,22.60
2018-07-20T07:25:18.142Z,22.60
2018-07-20T07:27:46.478Z,22.60
2018-07-20T07:30:14.867Z,22.60
2018-07-20T07:32:43.222Z,22.70
2018-07-20T07:35:11.664Z,22.90
2018-07-20T07:37:40.043Z,23.00
2018-07-20T07:40:08.528Z,23.00
2018-07-20T07:42:36.894Z,23.10
2018-07-20T07:45:05.306Z,23.20
2018-07-20T07:47:33.654Z,23.30
2018-07-20T07:50:02.068Z,23.40
2018-07-20T07:52:30.452Z,23.40
2018-07-20T07:54:58.850Z,23.50
2018-07-20T07:57:27.388Z,23.60
2018-07-20T07:59:55.665Z,23.70
2018-07-20T08:02:24.007Z,23.90
2018-07-20T08:04:52.389Z,24.00
2018-07-20T08:07:20.770Z,24.10
2018-07-20T08:09:49.177Z,24.10
2018-07-20T08:12:17.670Z,24.20
2018-07-20T08:14:46.037Z,24.30
2018-07-20T08:17:14.437Z,24.30
2018-07-20T08:19:42.810Z,24.40
2018-07-20T08:22:11.154Z,24.40
2018-07-20T08:24:39.619Z,24.40
2018-07-20T08:27:08.080Z,24.50
2018-07-20T08:29:36.488Z,24.50
2018-07-20T08:32:04.910Z,24.50
2018-07-20T08:34:33.272Z,24.50
2018-07-20T08:37:01.624Z,24.40
2018-07-20T08:39:29.949Z,24.50
2018-07-20T08:41:58.282Z,24.70
2018-07-20T08:44:26.696Z,24.80
2018-07-20T08:46:55.067Z,25.00
2018-07-20T08:49:23.391Z,25.20
2018-07-20T08:51:51.784Z,25.40
2018-07-20T08:54:20.117Z,25.40
2018-07-20T08:59:16.743Z,25.40
2018-07-20T09:01:45.178Z,25.50
2018-07-20T09:04:13.798Z,25.60
2018-07-20T09:06:45.049Z,25.50
2018-07-20T09:09:13.414Z,25.60
2018-07-20T09:11:41.793Z,25.60
2018-07-20T09:14:10.118Z,25.50
2018-07-20T09:16:38.473Z,25.50
2018-07-20T09:19:06.932Z,25.60
2018-07-20T09:21:35.366Z,25.80
2018-07-20T09:24:03.796Z,25.90
2018-07-20T09:26:32.247Z,26.00
2018-07-20T09:29:00.611Z,26.10
2018-07-20T09:31:29.032Z,26.20
2018-07-20T09:36:25.891Z,26.20
2018-07-20T09:38:54.346Z,26.30
2018-07-20T09:41:22.699Z,26.40
2018-07-20T09:43:51.094Z,26.40
2018-07-20T09:46:19.442Z,26.50
2018-07-20T09:48:47.780Z,26.50
2018-07-20T09:51:16.706Z,26.60
2018-07-20T09:53:44.992Z,26.80
2018-07-20T09:56:13.408Z,26.90
2018-07-20T09:58:41.794Z,27.00
2018-07-20T10:01:10.178Z,27.10
2018-07-20T10:03:38.549Z,27.10
2018-07-20T10:06:06.947Z,27.20
2018-07-20T10:08:35.311Z,27.30
2018-07-20T10:11:03.649Z,27.40
2018-07-20T10:13:32.055Z,27.50
2018-07-20T10:16:00.449Z,27.60
2018-07-20T10:18:28.797Z,27.80
2018-07-20T10:20:57.191Z,27.80
2018-07-20T10:23:25.538Z,27.90
2018-07-20T10:25:53.864Z,28.00
2018-07-20T10:28:22.192Z,28.00
2018-07-20T10:30:50.509Z,27.90
2018-07-20T10:33:18.870Z,27.90
2018-07-20T10:35:47.221Z,27.90
2018-07-20T10:38:15.534Z,27.80
2018-07-20T10:40:43.889Z,27.80
2018-07-20T10:43:12.325Z,27.70
2018-07-20T10:48:08.930Z,27.80
2018-07-20T10:50:37.282Z,27.80
2018-07-20T10:53:05.751Z,27.90
2018-07-20T10:55:34.055Z,27.90
2018-07-20T10:58:02.498Z,27.90
2018-07-20T11:00:31.465Z,27.70
2018-07-20T11:02:59.915Z,27.70
2018-07-20T11:05:28.245Z,27.80
2018-07-20T11:07:56.742Z,27.90
2018-07-20T11:10:25.244Z,28.00
2018-07-20T11:12:53.740Z,28.20
2018-07-20T11:15:22.154Z,28.30
2018-07-20T11:17:50.550Z,28.20
2018-07-20T11:20:18.897Z,28.30
2018-07-20T11:22:47.358Z,28.30
2018-07-20T11:27:44.007Z,28.20
2018-07-20T11:30:12.354Z,28.30
2018-07-20T11:32:40.740Z,28.40
2018-07-20T11:35:09.132Z,28.50
2018-07-20T11:37:37.509Z,28.50
2018-07-20T11:40:05.862Z,28.30
2018-07-20T11:42:34.180Z,28.30
2018-07-20T11:45:02.583Z,28.30
2018-07-20T11:47:30.970Z,28.10
2018-07-20T11:49:59.290Z,28.30
2018-07-20T11:52:27.608Z,28.40
2018-07-20T11:54:55.945Z,28.50
2018-07-20T11:57:24.354Z,28.70
2018-07-20T11:59:52.703Z,28.70
2018-07-20T12:04:49.325Z,28.80
2018-07-20T12:07:17.725Z,28.90
2018-07-20T12:09:46.061Z,29.10
2018-07-20T12:12:14.395Z,28.90
2018-07-20T12:14:42.860Z,28.80
2018-07-20T12:17:11.395Z,28.70
2018-07-20T12:19:39.813Z,28.60
2018-07-20T12:22:08.185Z,28.60
2018-07-20T12:24:36.514Z,28.70
2018-07-20T12:27:04.956Z,28.80
2018-07-20T12:29:33.328Z,28.90
2018-07-20T12:32:01.712Z,29.00
2018-07-20T12:34:30.099Z,29.00
2018-07-20T12:36:58.442Z,29.00
2018-07-20T12:39:26.777Z,29.00
2018-07-20T12:41:55.309Z,29.00
2018-07-20T12:44:23.669Z,29.00
2018-07-20T12:46:52.013Z,29.00
2018-07-20T12:49:20.498Z,29.10
2018-07-20T12:51:48.849Z,29.20
2018-07-20T12:54:17.155Z,29.30
2018-07-20T12:56:45.586Z,29.40
2018-07-20T12:59:13.957Z,29.50
2018-07-20T13:01:42.444Z,29.50
2018-07-20T13:04:10.872Z,29.40
2018-07-20T13:06:39.227Z,29.50
2018-07-20T13:09:09.909Z,29.50
2018-07-20T13:11:38.373Z,29.40
2018-07-20T13:14:07.146Z,29.40
2018-07-20T13:16:35.885Z,29.50
2018-07-20T13:19:04.822Z,29.60
2018-07-20T13:21:33.281Z,29.60
2018-07-20T13:24:01.677Z,29.60
2018-07-20T13:26:30.082Z,29.50
2018-07-20T13:28:58.441Z,29.30
2018-07-20T13:31:26.765Z,29.30
2018-07-20T13:33:55.448Z,29.40
2018-07-20T13:36:23.849Z,29.30
2018-07-20T13:38:52.228Z,29.30
2018-07-20T13:41:20.641Z,29.50
2018-07-20T13:43:49.003Z,29.60
2018-07-20T13:46:17.383Z,29.90
2018-07-20T13:48:45.860Z,30.00
2018-07-20T13:51:14.282Z,29.90
2018-07-20T13:53:43.336Z,29.90
2018-07-20T13:56:11.746Z,30.00
2018-07-20T13:58:40.132Z,30.10
2018-07-20T14:01:08.573Z,30.30
2018-07-20T14:03:36.918Z,30.40
2018-07-20T14:06:05.917Z,30.30
2018-07-20T14:08:34.252Z,29.80
2018-07-20T14:11:02.765Z,29.70
2018-07-20T14:13:31.179Z,29.70
2018-07-20T14:15:59.562Z,29.60
2018-07-20T14:18:27.941Z,29.60
2018-07-20T14:20:56.318Z,29.50
2018-07-20T14:23:24.749Z,29.50
2018-07-20T14:25:53.127Z,29.50
2018-07-20T14:28:22.125Z,29.40
2018-07-20T14:30:50.590Z,29.40
2018-07-20T14:33:19.042Z,29.50
2018-07-20T14:35:47.452Z,29.60
2018-07-20T14:38:15.832Z,29.70
2018-07-20T14:40:44.263Z,29.90
2018-07-20T14:43:12.656Z,30.00
2018-07-20T14:45:41.038Z,30.10
2018-07-20T14:48:09.532Z,30.10
2018-07-20T14:50:37.973Z,30.20
2018-07-20T14:53:06.410Z,30.20
2018-07-20T14:55:34.826Z,29.90
2018-07-20T14:58:03.140Z,30.00
2018-07-20T15:00:31.550Z,29.90
2018-07-20T15:02:59.950Z,29.80
2018-07-20T15:05:28.427Z,29.90
2018-07-20T15:07:56.802Z,29.80
2018-07-20T15:10:25.228Z,29.70
2018-07-20T15:12:53.741Z,29.70
2018-07-20T15:15:22.167Z,29.60
2018-07-20T15:17:50.566Z,29.60
2018-07-20T15:20:19.069Z,29.40
2018-07-20T15:22:47.425Z,29.40
2018-07-20T15:25:15.936Z,29.40
2018-07-20T15:27:44.323Z,29.40
2018-07-20T15:30:12.754Z,29.30
2018-07-20T15:32:41.172Z,29.20
2018-07-20T15:35:09.621Z,29.10
2018-07-20T15:40:06.401Z,29.00
2018-07-20T15:42:34.761Z,29.00
2018-07-20T15:45:03.258Z,29.00
2018-07-20T15:47:32.001Z,29.00
2018-07-20T15:50:00.338Z,28.80
2018-07-20T15:54:57.189Z,28.00
2018-07-20T15:57:25.664Z,27.80
2018-07-20T15:59:54.178Z,27.50
2018-07-20T16:02:22.478Z,27.40
2018-07-20T16:04:50.828Z,27.30
2018-07-20T16:07:19.271Z,27.20
2018-07-20T16:09:47.726Z,27.10
2018-07-20T16:14:44.453Z,27.00
2018-07-20T16:17:12.985Z,26.90
2018-07-20T16:19:41.333Z,26.90
2018-07-20T16:22:09.872Z,26.70
2018-07-20T16:24:38.303Z,26.30
2018-07-20T16:27:07.271Z,25.90
2018-07-20T16:29:35.714Z,25.80
2018-07-20T16:32:04.109Z,25.60
2018-07-20T16:34:32.579Z,25.30
2018-07-20T16:37:00.989Z,25.30
2018-07-20T16:39:29.526Z,25.20
2018-07-20T16:41:57.950Z,25.20
2018-07-20T16:44:26.337Z,25.10
2018-07-20T16:49:23.152Z,25.00
2018-07-20T16:51:51.517Z,25.00
2018-07-20T16:54:19.902Z,25.00
2018-07-20T16:56:48.991Z,25.00
2018-07-20T16:59:17.436Z,24.90
2018-07-20T17:01:45.836Z,25.00
2018-07-20T17:04:14.186Z,25.00
2018-07-20T17:09:11.676Z,25.10
2018-07-20T17:11:40.486Z,25.20
2018-07-20T17:14:08.909Z,25.20
2018-07-20T17:16:37.257Z,25.00
2018-07-20T17:19:05.710Z,25.10
2018-07-20T17:21:34.282Z,24.90
2018-07-20T17:24:02.765Z,24.90
2018-07-20T17:26:31.182Z,24.80
2018-07-20T17:28:59.585Z,24.70
2018-07-20T17:31:28.050Z,24.50
2018-07-20T17:33:56.403Z,24.30
2018-07-20T17:36:24.783Z,24.40
2018-07-20T17:38:53.238Z,24.50
2018-07-20T17:41:21.725Z,24.50
2018-07-20T17:43:50.161Z,24.50
2018-07-20T17:46:18.727Z,24.50
2018-07-20T17:48:47.064Z,24.50
2018-07-20T17:51:15.607Z,24.50
2018-07-20T17:56:12.269Z,24.30
2018-07-20T17:58:40.689Z,24.10
2018-07-20T18:01:09.048Z,24.20
2018-07-20T18:03:37.509Z,24.10
2018-07-20T18:06:05.970Z,24.10
2018-07-20T18:08:34.357Z,24.00
2018-07-20T18:11:02.789Z,24.10
2018-07-20T18:13:31.832Z,24.20
2018-07-20T18:16:00.250Z,24.10
2018-07-20T18:18:28.632Z,24.20
2018-07-20T18:20:57.017Z,24.20
2018-07-20T18:23:25.558Z,24.20
2018-07-20T18:25:54.063Z,24.10
2018-07-20T18:28:22.438Z,24.00
2018-07-20T18:30:51.406Z,23.90
2018-07-20T18:33:19.845Z,24.10
2018-07-20T18:35:48.250Z,24.10
2018-07-20T18:38:16.752Z,24.20
2018-07-20T18:40:45.340Z,24.10
2018-07-20T18:43:13.705Z,24.10
2018-07-20T18:45:42.108Z,24.20
2018-07-20T18:48:11.764Z,24.30
2018-07-20T18:50:40.086Z,24.30
2018-07-20T18:53:08.451Z,24.30
2018-07-20T18:55:36.850Z,24.20
2018-07-20T18:58:05.320Z,24.20
2018-07-20T19:00:33.721Z,24.00
2018-07-20T19:03:02.077Z,23.90
2018-07-20T19:05:30.448Z,23.90
2018-07-20T19:07:58.849Z,24.00
2018-07-20T19:10:27.263Z,24.00
2018-07-20T19:12:55.698Z,23.90
2018-07-20T19:15:24.137Z,23.80
2018-07-20T19:17:52.546Z,23.60
2018-07-20T19:20:20.968Z,23.40
2018-07-20T19:22:49.325Z,23.30
2018-07-20T19:25:17.773Z,23.20
2018-07-20T19:27:46.113Z,23.20
2018-07-20T19:30:14.460Z,23.30
2018-07-20T19:32:42.907Z,23.40
2018-07-20T19:35:12.264Z,23.50
2018-07-20T19:37:40.646Z,23.60
2018-07-20T19:40:09.014Z,23.60
2018-07-20T19:42:37.407Z,23.70
2018-07-20T19:45:06.019Z,23.60
2018-07-20T19:47:34.341Z,23.60
2018-07-20T19:50:02.818Z,23.70
2018-07-20T19:52:31.247Z,23.60
2018-07-20T19:54:59.607Z,23.60
2018-07-20T19:57:27.969Z,23.70
2018-07-20T19:59:56.332Z,23.70
2018-07-20T20:02:25.013Z,23.70
2018-07-20T20:04:53.435Z,23.80
2018-07-20T20:07:21.886Z,23.70
2018-07-20T20:09:50.362Z,23.60
2018-07-20T20:12:18.855Z,23.60
2018-07-20T20:14:47.348Z,23.70
2018-07-20T20:17:15.770Z,23.70
2018-07-20T20:19:44.182Z,23.70
2018-07-20T20:22:12.595Z,23.60
2018-07-20T20:24:41.069Z,23.60
2018-07-20T20:27:09.523Z,23.60
2018-07-20T20:29:37.966Z,23.60
2018-07-20T20:32:06.525Z,23.70
2018-07-20T20:34:34.989Z,23.60
2018-07-20T20:37:03.406Z,23.60
2018-07-20T20:39:31.862Z,23.60
2018-07-20T20:42:00.240Z,23.60
2018-07-20T20:44:28.565Z,23.50
2018-07-20T20:46:56.911Z,23.50
2018-07-20T20:49:25.783Z,23.50
2018-07-20T20:51:54.283Z,23.30
2018-07-20T20:54:22.640Z,23.30
2018-07-20T20:56:51.095Z,23.30
2018-07-20T20:59:19.552Z,23.30
2018-07-20T21:01:47.977Z,23.10
2018-07-20T21:04:16.305Z,22.80
2018-07-20T21:06:44.722Z,22.90
2018-07-20T21:09:13.106Z,23.00
2018-07-20T21:11:41.706Z,23.10
2018-07-20T21:14:10.018Z,23.00
2018-07-20T21:16:38.571Z,22.70
2018-07-20T21:19:06.977Z,22.70
2018-07-20T21:21:35.412Z,22.70
2018-07-20T21:24:03.895Z,22.80
2018-07-20T21:26:32.285Z,22.90
2018-07-20T21:29:00.706Z,23.00
2018-07-20T21:31:29.172Z,23.10
2018-07-20T21:33:57.561Z,23.20
2018-07-20T21:36:25.976Z,23.00
2018-07-20T21:38:54.425Z,23.00
2018-07-20T21:41:22.856Z,22.80
2018-07-20T21:43:51.331Z,22.80
2018-07-20T21:46:19.689Z,22.80
2018-07-20T21:48:48.147Z,22.80
2018-07-20T21:51:16.589Z,22.90
2018-07-20T21:53:44.941Z,23.00
2018-07-20T21:56:13.365Z,22.90
2018-07-20T21:58:41.783Z,22.90
2018-07-20T22:01:10.229Z,23.00
2018-07-20T22:03:38.592Z,22.80
2018-07-20T22:06:07.073Z,22.80
2018-07-20T22:08:35.400Z,22.80
2018-07-20T22:11:03.743Z,22.70
2018-07-20T22:13:32.088Z,22.30
2018-07-20T22:16:00.442Z,22.20
2018-07-20T22:18:28.827Z,22.20
2018-07-20T22:20:57.315Z,22.30
2018-07-20T22:23:25.653Z,22.10
2018-07-20T22:25:54.045Z,22.10
2018-07-20T22:28:22.418Z,22.00
2018-07-20T22:30:50.761Z,22.10
2018-07-20T22:33:19.136Z,22.10
2018-07-20T22:35:47.498Z,22.20
2018-07-20T22:38:15.836Z,22.20
2018-07-20T22:40:44.206Z,22.20
2018-07-20T22:43:12.566Z,22.20
2018-07-20T22:45:41.080Z,22.20
2018-07-20T22:48:09.522Z,22.20
2018-07-20T22:50:37.884Z,22.30
2018-07-20T22:53:06.301Z,22.10
2018-07-20T22:55:34.633Z,22.10
2018-07-20T22:58:03.052Z,21.70
2018-07-20T23:00:31.447Z,21.50
2018-07-20T23:02:59.871Z,21.30
2018-07-20T23:05:28.182Z,21.30
2018-07-20T23:07:56.600Z,21.30
2018-07-20T23:10:25.003Z,21.30
2018-07-20T23:12:54.066Z,21.40
2018-07-20T23:15:22.450Z,21.40
2018-07-20T23:17:50.877Z,21.40
2018-07-20T23:20:19.240Z,21.40
2018-07-20T23:22:47.675Z,21.40
2018-07-20T23:27:44.453Z,21.30
2018-07-20T23:30:12.805Z,21.20
2018-07-20T23:32:41.132Z,21.20
2018-07-20T23:35:09.542Z,21.20
2018-07-20T23:37:37.919Z,21.20
2018-07-20T23:40:06.710Z,21.20
2018-07-20T23:42:35.056Z,21.20
2018-07-20T23:45:03.528Z,21.20
2018-07-20T23:47:31.922Z,21.20
2018-07-20T23:50:00.264Z,21.10
2018-07-20T23:52:28.040Z,21.00
2018-07-20T23:54:56.440Z,21.00
2018-07-20T23:57:24.834Z,21.00
2018-07-20T23:59:53.182Z,21.00
